Time;durP1;ratioP1;P1;durP2;ratioP2;P2;SDS_P1;SDS_P2;PMS_P1;PMS_P2;Temp;Humidity;BMP_temperature;BMP_pressure;BME280_temperature;BME280_humidity;BME280_pressure;Samples;Min_cycle;Max_cycle;Signal;HPM_P1;HPM_P2
2022/08/20 00:00:01;;;;;;;4.67;4.37;;;21.70;60.10;;;;;;20652;6744;300167;-87
2022/08/20 00:02:37;;;;;;;4.90;4.50;;;22.00;59.90;;;;;;20634;6759;309358;-87
2022/08/20 00:05:12;;;;;;;3.80;3.60;;;22.30;58.80;;;;;;20854;6759;118235;-87
2022/08/20 00:07:48;;;;;;;4.27;4.07;;;22.30;58.90;;;;;;20899;6744;117755;-88
2022/08/20 00:10:23;;;;;;;4.70;4.40;;;22.00;59.40;;;;;;20685;6744;277426;-87
2022/08/20 00:12:59;;;;;;;4.75;4.45;;;22.20;59.00;;;;;;20680;6744;335365;-87
2022/08/20 00:15:34;;;;;;;4.60;4.40;;;22.40;58.20;;;;;;20649;6744;308148;-87
2022/08/20 00:18:10;;;;;;;4.20;4.00;;;22.70;57.60;;;;;;20831;6759;117279;-87
2022/08/20 00:20:46;;;;;;;4.23;4.03;;;22.50;58.00;;;;;;20855;6758;117061;-87
2022/08/20 00:23:21;;;;;;;4.97;4.50;;;22.20;58.80;;;;;;20851;6759;117129;-87
2022/08/20 00:25:57;;;;;;;4.87;4.60;;;22.00;59.20;;;;;;20556;6759;310279;-87
2022/08/20 00:28:33;;;;;;;4.50;4.30;;;22.00;59.20;;;;;;20843;6762;118277;-87
2022/08/20 00:31:09;;;;;;;4.17;3.97;;;22.00;59.30;;;;;;20919;6739;119916;-87
2022/08/20 00:33:44;;;;;;;4.67;4.27;;;21.80;59.80;;;;;;20915;6739;117108;-87
2022/08/20 00:36:21;;;;;;;4.60;4.30;;;21.80;60.00;;;;;;20605;6739;310334;-87
2022/08/20 00:38:56;;;;;;;4.23;3.93;;;21.80;60.00;;;;;;20920;6739;117466;-87
2022/08/20 00:41:33;;;;;;;4.00;3.80;;;21.80;60.00;;;;;;20915;6739;119831;-87
2022/08/20 00:44:15;;;;;;;4.30;3.90;;;21.60;60.30;;;;;;20896;6741;117708;-87
2022/08/20 00:46:50;;;;;;;4.43;4.22;;;21.30;60.70;;;;;;20578;6741;306863;-87
2022/08/20 00:49:26;;;;;;;4.70;4.40;;;21.60;60.50;;;;;;20854;6759;123010;-87
2022/08/20 00:52:07;;;;;;;4.17;3.97;;;21.60;60.30;;;;;;20879;6744;119104;-88
2022/08/20 00:54:46;;;;;;;3.97;3.77;;;21.40;60.80;;;;;;20904;6744;119949;-87
2022/08/20 00:57:26;;;;;;;4.43;4.20;;;21.30;61.30;;;;;;20695;6759;118010;-86
2022/08/20 01:00:02;;;;;;;4.60;4.40;;;21.20;61.70;;;;;;20663;6744;335382;-87
2022/08/20 01:02:38;;;;;;;4.77;4.47;;;21.40;61.00;;;;;;20882;6744;117215;-87
2022/08/20 01:05:13;;;;;;;4.60;4.30;;;21.50;60.90;;;;;;20744;6744;304823;-86
2022/08/20 01:07:52;;;;;;;5.00;4.53;;;21.70;60.30;;;;;;20755;6744;286306;-86
2022/08/20 01:10:28;;;;;;;5.00;4.70;;;22.10;59.50;;;;;;20702;6744;307829;-88
2022/08/20 01:13:09;;;;;;;4.70;4.50;;;22.30;58.70;;;;;;20684;6744;277171;-87
2022/08/20 01:15:43;;;;;;;4.53;4.23;;;22.50;58.20;;;;;;20862;6744;117598;-87
2022/08/20 01:18:19;;;;;;;5.17;4.77;;;22.20;58.60;;;;;;20672;6744;276569;-87
2022/08/20 01:20:56;;;;;;;5.10;4.80;;;22.30;58.70;;;;;;20640;6759;306930;-86
2022/08/20 01:23:52;;;;;;;5.03;4.77;;;22.40;58.30;;;;;;20845;6759;119226;-87
2022/08/20 01:26:41;;;;;;;4.73;4.30;;;22.20;58.50;;;;;;20743;6757;119743;-87
2022/08/20 01:29:16;;;;;;;5.10;4.90;;;21.80;59.40;;;;;;20631;6759;330945;-87
2022/08/20 01:31:52;;;;;;;5.50;5.10;;;21.90;59.30;;;;;;20579;6774;294570;-87
2022/08/20 01:34:27;;;;;;;5.40;5.00;;;22.10;58.90;;;;;;20801;6774;121772;-87
2022/08/20 01:37:04;;;;;;;5.53;5.23;;;22.00;59.10;;;;;;20491;6762;309201;-87
2022/08/20 01:39:50;;;;;;;5.17;4.83;;;21.90;59.60;;;;;;20867;6754;117477;-87
2022/08/20 01:42:29;;;;;;;4.93;4.63;;;21.90;59.50;;;;;;20843;6754;117898;-87
2022/08/20 01:45:06;;;;;;;5.07;4.67;;;21.60;60.00;;;;;;20802;6774;117228;-87
2022/08/20 01:47:44;;;;;;;4.20;4.00;;;21.20;61.40;;;;;;20650;6823;117547;-87
2022/08/20 01:50:17;;;;;;;5.80;5.33;;;21.20;61.10;;;;;;20617;6759;307816;-87
2022/08/20 01:52:56;;;;;;;5.37;4.70;;;21.40;60.80;;;;;;20895;6744;117490;-87
2022/08/20 01:55:32;;;;;;;4.90;4.50;;;21.30;61.70;;;;;;20874;6744;117111;-87
2022/08/20 01:58:09;;;;;;;4.50;4.20;;;21.20;60.90;;;;;;20878;6744;116919;-87
2022/08/20 02:00:45;;;;;;;5.13;4.83;;;21.10;61.40;;;;;;20850;6759;120525;-87
2022/08/20 02:03:22;;;;;;;4.70;4.40;;;20.90;61.80;;;;;;20846;6759;116978;-87
2022/08/20 02:05:57;;;;;;;5.77;5.37;;;20.80;62.20;;;;;;20551;6759;297461;-88
2022/08/20 02:08:33;;;;;;;6.03;5.43;;;21.10;61.90;;;;;;20836;6762;117860;-87
2022/08/20 02:11:10;;;;;;;5.23;4.93;;;21.10;61.70;;;;;;20912;6739;117018;-87
2022/08/20 02:13:48;;;;;;;6.10;5.20;;;20.90;62.10;;;;;;20862;6754;117184;-87
2022/08/20 02:16:21;;;;;;;5.90;5.30;;;20.80;62.60;;;;;;20744;6754;117554;-87
2022/08/20 02:18:57;;;;;;;5.83;5.43;;;20.70;62.90;;;;;;20858;6756;118289;-87
2022/08/20 02:21:32;;;;;;;5.57;5.27;;;20.60;63.20;;;;;;20862;6754;120457;-87
2022/08/20 02:24:09;;;;;;;6.17;5.87;;;20.50;63.40;;;;;;20685;6739;276306;-87
2022/08/20 02:26:45;;;;;;;6.03;5.72;;;20.80;62.90;;;;;;20529;6759;339288;-87
2022/08/20 02:29:20;;;;;;;6.43;6.10;;;21.30;61.80;;;;;;20639;6759;278138;-87
2022/08/20 02:31:56;;;;;;;6.67;6.07;;;21.70;60.60;;;;;;20873;6744;117010;-87
2022/08/20 02:34:33;;;;;;;6.40;6.00;;;21.60;60.80;;;;;;20900;6744;117193;-87
2022/08/20 02:37:09;;;;;;;7.17;6.67;;;21.50;60.70;;;;;;20504;6744;308553;-87
2022/08/20 02:39:46;;;;;;;7.40;6.90;;;21.40;60.60;;;;;;20678;6744;337379;-87
2022/08/20 02:42:21;;;;;;;7.57;7.07;;;21.80;60.30;;;;;;20665;6744;335345;-87
2022/08/20 02:44:57;;;;;;;7.50;7.00;;;22.00;59.10;;;;;;20686;6743;308743;-87
2022/08/20 02:47:32;;;;;;;7.00;6.43;;;22.10;58.60;;;;;;20680;6744;117440;-87
2022/08/20 02:50:09;;;;;;;6.43;6.10;;;21.90;59.10;;;;;;20882;6744;120105;-87
2022/08/20 02:52:44;;;;;;;7.33;6.93;;;21.70;60.20;;;;;;20684;6744;307897;-87
2022/08/20 02:55:20;;;;;;;6.87;6.47;;;21.70;59.90;;;;;;20885;6744;116951;-87
2022/08/20 02:58:05;;;;;;;7.07;6.53;;;21.60;60.00;;;;;;20876;6744;117666;-87
2022/08/20 03:00:31;;;;;;;7.37;6.97;;;21.30;60.60;;;;;;20683;6744;306110;-87
2022/08/20 03:03:07;;;;;;;7.30;6.80;;;21.50;60.40;;;;;;20688;6744;306860;-86
2022/08/20 03:05:42;;;;;;;7.57;7.07;;;21.80;59.80;;;;;;20648;6744;279021;-87
2022/08/20 03:08:18;;;;;;;7.75;7.15;;;22.00;59.20;;;;;;20669;6744;335476;-87
2022/08/20 03:10:56;;;;;;;7.40;7.03;;;22.10;59.20;;;;;;20687;6744;309262;-87
2022/08/20 03:13:29;;;;;;;6.70;6.40;;;22.20;58.20;;;;;;20896;6744;117183;-87
2022/08/20 03:16:05;;;;;;;6.83;6.40;;;21.90;58.70;;;;;;20797;6744;120056;-87
2022/08/20 03:18:40;;;;;;;7.10;6.70;;;21.50;59.50;;;;;;20690;6744;305997;-87
2022/08/20 03:21:16;;;;;;;6.85;6.25;;;21.50;59.80;;;;;;20686;6744;311455;-87
2022/08/20 03:23:51;;;;;;;6.97;6.57;;;21.70;59.10;;;;;;20682;6744;306412;-86
2022/08/20 03:26:27;;;;;;;6.70;6.30;;;21.90;58.80;;;;;;20576;6744;308592;-87
2022/08/20 03:29:05;;;;;;;5.83;5.43;;;22.00;58.30;;;;;;20901;6744;117608;-87
2022/08/20 03:31:38;;;;;;;6.00;5.60;;;21.70;58.80;;;;;;20901;6744;116972;-86
2022/08/20 03:34:14;;;;;;;5.63;5.33;;;21.30;59.60;;;;;;20886;6744;116979;-88
2022/08/20 03:36:49;;;;;;;5.93;5.50;;;21.00;60.40;;;;;;20542;6744;278801;-87
2022/08/20 03:39:26;;;;;;;5.55;5.22;;;21.20;60.40;;;;;;20636;6759;336292;-87
2022/08/20 03:42:01;;;;;;;5.20;4.90;;;21.50;59.80;;;;;;20882;6744;117044;-87
2022/08/20 03:44:37;;;;;;;5.20;4.80;;;21.30;59.90;;;;;;20857;6759;117874;-86
2022/08/20 03:47:13;;;;;;;6.12;5.72;;;21.10;60.60;;;;;;20460;6759;312285;-87
2022/08/20 03:49:51;;;;;;;5.43;5.10;;;21.20;60.30;;;;;;20851;6762;117772;-87
2022/08/20 03:52:28;;;;;;;5.72;5.50;;;21.10;60.40;;;;;;20664;6739;338308;-87
2022/08/20 03:55:03;;;;;;;5.37;5.07;;;21.20;60.30;;;;;;20875;6754;117397;-88
2022/08/20 03:57:42;;;;;;;5.70;5.40;;;21.20;60.30;;;;;;20685;6827;116397;-86
2022/08/20 04:00:19;;;;;;;5.82;5.45;;;21.00;60.90;;;;;;20670;6759;308868;-86
2022/08/20 04:02:56;;;;;;;5.80;5.40;;;21.10;60.80;;;;;;20878;6744;115978;-86
2022/08/20 04:05:29;;;;;;;5.67;5.27;;;21.10;60.70;;;;;;20835;6744;119710;-88
2022/08/20 04:08:04;;;;;;;5.80;5.40;;;20.90;61.30;;;;;;20837;6759;118081;-91
2022/08/20 04:10:40;;;;;;;5.90;5.53;;;20.70;61.70;;;;;;20905;6759;67296;-86
2022/08/20 04:16:18;;;;;;;6.03;5.67;;;20.40;62.60;;;;;;20961;6652;89717;-85
2022/08/20 04:19:14;;;;;;;6.67;6.17;;;20.40;63.00;;;;;;21217;6661;116133;-90
2022/08/20 04:21:51;;;;;;;7.23;6.80;;;20.30;63.10;;;;;;20681;6635;297151;-86
2022/08/20 04:24:30;;;;;;;6.50;6.03;;;20.70;62.50;;;;;;20414;6762;118666;-89
2022/08/20 04:27:05;;;;;;;6.97;6.57;;;20.80;62.20;;;;;;20683;6605;280823;-87
2022/08/20 04:29:38;;;;;;;6.93;6.20;;;21.00;61.60;;;;;;20914;6744;117156;-89
2022/08/20 04:32:13;;;;;;;7.50;7.00;;;21.00;61.50;;;;;;20651;6733;299723;-87
2022/08/20 04:34:50;;;;;;;7.32;6.72;;;21.20;60.90;;;;;;20670;6747;339613;-86
2022/08/20 04:37:25;;;;;;;7.27;6.77;;;21.50;60.30;;;;;;20776;6750;117498;-89
2022/08/20 04:42:59;;;;;;;7.57;6.87;;;21.50;60.20;;;;;;20912;6741;116986;-87
2022/08/20 04:45:35;;;;;;;6.63;6.23;;;21.30;60.40;;;;;;20884;6740;117359;-89
2022/08/20 04:48:14;;;;;;;7.03;6.57;;;21.10;60.90;;;;;;20640;6754;276695;-87
2022/08/20 04:50:52;;;;;;;7.37;6.97;;;21.10;60.80;;;;;;20660;6754;304964;-87
2022/08/20 04:53:25;;;;;;;7.70;7.10;;;21.50;60.20;;;;;;20661;6754;291660;-87
2022/08/20 04:56:00;;;;;;;7.20;6.70;;;21.70;59.40;;;;;;20785;6810;143940;-86
2022/08/20 04:58:36;;;;;;;7.17;6.77;;;21.60;59.70;;;;;;20915;6740;117114;-86
2022/08/20 05:01:14;;;;;;;7.27;6.77;;;21.30;60.40;;;;;;20936;6743;118163;-87
2022/08/20 05:03:52;;;;;;;7.07;6.53;;;21.00;61.00;;;;;;20970;6725;117147;-86
2022/08/20 05:06:27;;;;;;;7.60;7.07;;;20.80;61.50;;;;;;20699;6707;306918;-87
2022/08/20 05:09:01;;;;;;;7.53;7.12;;;21.10;61.50;;;;;;20753;6722;308462;-87
2022/08/20 05:11:36;;;;;;;8.13;7.60;;;21.50;60.50;;;;;;20744;6726;306928;-86
2022/08/20 05:14:13;;;;;;;7.00;6.60;;;21.80;59.60;;;;;;20953;6722;116980;-86
2022/08/20 05:16:49;;;;;;;7.40;7.00;;;21.70;59.90;;;;;;20639;6722;307388;-87
2022/08/20 05:19:23;;;;;;;6.82;6.53;;;21.80;59.70;;;;;;20777;6719;277572;-87
2022/08/20 05:22:00;;;;;;;7.00;6.60;;;22.10;58.50;;;;;;20785;6706;302383;-88
2022/08/20 05:24:35;;;;;;;6.90;6.30;;;22.10;59.10;;;;;;21065;6703;116441;-87
2022/08/20 05:27:11;;;;;;;6.43;5.93;;;21.90;58.90;;;;;;20909;6703;117587;-86
2022/08/20 05:29:47;;;;;;;6.77;6.37;;;21.60;59.90;;;;;;20793;6619;307520;-87
2022/08/20 05:32:22;;;;;;;6.70;6.30;;;21.70;59.40;;;;;;20749;6719;330231;-86
2022/08/20 05:34:57;;;;;;;6.70;6.30;;;22.00;58.90;;;;;;20767;6719;275295;-86
2022/08/20 05:37:33;;;;;;;6.87;6.47;;;22.20;58.10;;;;;;20630;6719;306271;-86
2022/08/20 05:40:10;;;;;;;7.37;6.87;;;22.30;57.60;;;;;;20742;6719;304608;-87
2022/08/20 05:42:47;;;;;;;6.53;6.07;;;22.40;57.40;;;;;;20971;6719;117347;-86
2022/08/20 05:45:23;;;;;;;7.15;6.65;;;22.10;58.00;;;;;;20769;6719;305546;-86
2022/08/20 05:47:58;;;;;;;6.33;5.87;;;22.00;58.00;;;;;;20921;6734;119855;-86
2022/08/20 05:50:43;;;;;;;5.80;5.50;;;21.80;58.50;;;;;;20834;6734;117609;-90
2022/08/20 05:53:11;;;;;;;6.57;6.17;;;21.50;59.40;;;;;;20934;6734;117914;-86
2022/08/20 05:55:48;;;;;;;6.70;6.40;;;21.20;60.10;;;;;;20622;6753;309230;-86
2022/08/20 05:58:22;;;;;;;7.10;6.70;;;21.40;60.20;;;;;;20761;6721;275263;-86
2022/08/20 06:00:58;;;;;;;7.72;7.22;;;21.80;59.80;;;;;;20769;6721;315265;-86
2022/08/20 06:06:12;;;;;;;6.67;6.17;;;22.00;59.40;;;;;;20207;6776;119828;-87
2022/08/20 06:08:48;;;;;;;7.37;6.77;;;22.00;59.70;;;;;;20768;6718;309681;-86
2022/08/20 06:11:24;;;;;;;7.10;6.70;;;22.00;59.60;;;;;;20824;6703;307129;-86
2022/08/20 06:13:59;;;;;;;6.93;6.60;;;22.40;59.00;;;;;;20814;6703;308426;-87
2022/08/20 06:16:41;;;;;;;6.73;6.40;;;23.00;58.40;;;;;;20729;6703;306270;-90
2022/08/20 06:19:12;;;;;;;6.67;6.27;;;22.90;57.50;;;;;;20826;6703;302838;-89
2022/08/20 06:21:48;;;;;;;7.05;6.65;;;23.20;57.10;;;;;;20773;6718;305462;-87
2022/08/20 06:24:24;;;;;;;7.33;6.83;;;23.40;56.60;;;;;;20765;6717;304873;-86
2022/08/20 06:27:00;;;;;;;6.78;6.37;;;23.50;56.50;;;;;;20644;6718;295115;-88
2022/08/20 06:29:37;;;;;;;6.50;6.20;;;23.50;56.50;;;;;;21021;6703;116717;-87
2022/08/20 06:32:13;;;;;;;6.33;6.03;;;23.40;57.00;;;;;;20928;6732;117000;-87
2022/08/20 06:34:50;;;;;;;6.47;6.07;;;23.20;57.20;;;;;;20702;6732;306352;-87
2022/08/20 06:37:26;;;;;;;6.47;6.07;;;23.10;57.00;;;;;;20702;6800;117357;-87
2022/08/20 06:40:02;;;;;;;6.47;6.17;;;23.10;57.40;;;;;;20967;6717;117277;-87
2022/08/20 06:42:42;;;;;;;6.90;6.60;;;22.90;57.90;;;;;;20762;6718;309141;-88
2022/08/20 06:45:15;;;;;;;6.60;6.30;;;23.00;57.30;;;;;;20988;6718;118080;-87
2022/08/20 06:47:49;;;;;;;6.03;5.73;;;23.00;57.60;;;;;;21031;6713;66089;-92
2022/08/20 06:50:37;;;;;;;6.50;6.20;;;22.80;58.10;;;;;;20822;6713;274538;-88
2022/08/20 06:53:03;;;;;;;6.50;6.00;;;23.10;58.20;;;;;;20796;6713;304455;-88
2022/08/20 06:55:39;;;;;;;6.17;5.83;;;23.50;57.60;;;;;;20965;6713;120067;-87
2022/08/20 06:58:14;;;;;;;6.27;5.97;;;23.70;57.80;;;;;;20730;6733;305875;-89
2022/08/20 07:00:50;;;;;;;6.05;5.65;;;23.90;56.10;;;;;;20785;6733;274572;-87
2022/08/20 07:03:25;;;;;;;5.83;5.53;;;24.30;55.00;;;;;;20762;6748;116069;-87
2022/08/20 07:06:01;;;;;;;6.40;5.90;;;24.30;55.60;;;;;;20770;6796;117751;-90
2022/08/20 07:08:37;;;;;;;6.70;6.30;;;24.30;56.00;;;;;;20651;6733;307029;-89
2022/08/20 07:11:13;;;;;;;6.80;6.30;;;24.30;55.60;;;;;;20787;6703;322685;-91
2022/08/20 07:13:48;;;;;;;6.03;5.63;;;24.50;55.00;;;;;;20956;6732;117791;-87
2022/08/20 07:16:24;;;;;;;6.70;6.30;;;24.40;55.10;;;;;;20712;6721;308577;-88
2022/08/20 07:19:09;;;;;;;5.90;5.50;;;24.40;54.50;;;;;;21017;6718;117018;-87
2022/08/20 07:21:36;;;;;;;6.10;5.80;;;24.30;55.40;;;;;;20805;6703;275016;-90
2022/08/20 07:24:11;;;;;;;6.80;6.37;;;24.30;55.00;;;;;;21084;6703;125683;-87
2022/08/20 07:26:49;;;;;;;6.20;5.90;;;24.20;55.40;;;;;;20939;6720;116285;-87
2022/08/20 07:32:32;;;;;;;5.70;5.40;;;23.90;55.80;;;;;;20769;6756;117262;-92
2022/08/20 07:34:43;;;;;;;6.10;5.80;;;23.50;56.70;;;;;;20485;6777;307469;-87
2022/08/20 07:37:20;;;;;;;6.33;5.80;;;23.70;56.60;;;;;;20891;6721;116262;-87
2022/08/20 07:39:56;;;;;;;6.13;5.73;;;23.80;56.60;;;;;;20790;6718;117777;-91
2022/08/20 07:42:31;;;;;;;6.40;6.10;;;23.60;57.00;;;;;;20650;6797;306426;-90
2022/08/20 07:45:09;;;;;;;6.60;6.00;;;23.90;57.00;;;;;;21006;6747;116532;-87
2022/08/20 07:47:43;;;;;;;6.27;5.87;;;23.90;56.90;;;;;;20720;6730;276075;-87
2022/08/20 07:50:29;;;;;;;6.37;6.07;;;24.10;56.00;;;;;;20732;6730;306404;-88
2022/08/20 07:52:59;;;;;;;5.93;5.63;;;24.50;55.50;;;;;;20926;6735;117389;-88
2022/08/20 07:55:32;;;;;;;5.70;5.40;;;24.50;55.70;;;;;;20910;6735;116994;-87
2022/08/20 07:58:07;;;;;;;5.80;5.47;;;24.30;56.00;;;;;;20916;6736;117195;-88
2022/08/20 08:00:44;;;;;;;6.13;5.83;;;24.10;56.30;;;;;;20769;6719;305363;-87
2022/08/20 08:03:20;;;;;;;6.40;6.00;;;24.30;55.70;;;;;;20967;6776;122326;-88
2022/08/20 08:05:55;;;;;;;5.73;5.33;;;24.50;56.20;;;;;;20799;6776;118909;-87
2022/08/20 08:08:32;;;;;;;6.00;5.60;;;24.40;56.70;;;;;;20973;6776;117419;-87
2022/08/20 08:11:09;;;;;;;6.40;6.00;;;24.30;56.70;;;;;;20718;6736;305410;-89
2022/08/20 08:13:44;;;;;;;6.60;6.03;;;24.60;56.10;;;;;;20943;6776;116838;-88
2022/08/20 08:16:21;;;;;;;6.37;5.80;;;24.70;56.20;;;;;;20870;6719;117156;-88
2022/08/20 08:18:58;;;;;;;5.73;5.43;;;24.60;56.30;;;;;;20928;6734;116845;-88
2022/08/20 08:21:32;;;;;;;6.13;5.77;;;24.60;56.50;;;;;;20668;6736;278008;-88
2022/08/20 08:24:09;;;;;;;5.80;5.50;;;25.00;54.70;;;;;;20789;6768;117188;-88
2022/08/20 08:26:44;;;;;;;6.03;5.73;;;25.20;55.10;;;;;;20753;6769;117465;-89
2022/08/20 08:29:25;;;;;;;5.63;5.07;;;25.30;55.20;;;;;;20904;6744;118367;-89
2022/08/20 08:31:55;;;;;;;5.17;4.87;;;25.40;55.70;;;;;;20931;6740;147285;-89
2022/08/20 08:34:30;;;;;;;5.90;5.60;;;25.50;55.50;;;;;;20754;6725;306454;-89
2022/08/20 08:37:06;;;;;;;5.90;5.60;;;26.00;53.40;;;;;;20666;6747;279809;-90
2022/08/20 08:39:42;;;;;;;5.78;5.47;;;26.50;53.00;;;;;;20692;6739;315979;-88
2022/08/20 08:43:00;;;;;;;5.60;5.00;;;26.90;52.20;;;;;;20805;6744;116641;-91
2022/08/20 08:45:44;;;;;;;5.00;4.73;;;27.10;52.50;;;;;;20772;6816;117457;-88
2022/08/20 08:48:20;;;;;;;5.03;4.73;;;27.00;52.90;;;;;;20851;6749;119417;-89
2022/08/20 08:50:57;;;;;;;5.00;4.70;;;27.00;52.90;;;;;;20937;6734;117198;-89
2022/08/20 08:53:32;;;;;;;5.30;4.90;;;27.10;52.40;;;;;;20870;6749;117101;-88
2022/08/20 08:56:08;;;;;;;5.70;5.20;;;27.00;51.90;;;;;;20559;6759;309100;-89
2022/08/20 08:58:43;;;;;;;5.10;4.77;;;27.30;49.40;;;;;;20917;6736;117417;-88
2022/08/20 09:01:22;;;;;;;5.23;4.93;;;27.30;50.20;;;;;;20902;6742;116613;-89
2022/08/20 09:03:58;;;;;;;5.23;4.83;;;27.20;50.80;;;;;;20836;6759;117557;-88
2022/08/20 09:06:46;;;;;;;5.77;5.47;;;27.10;49.60;;;;;;20604;6739;281730;-89
2022/08/20 09:09:15;;;;;;;5.30;5.00;;;27.10;49.60;;;;;;21005;6714;116861;-88
2022/08/20 09:11:53;;;;;;;6.20;5.80;;;26.90;51.70;;;;;;20941;6729;116761;-89
2022/08/20 09:14:29;;;;;;;5.40;5.10;;;26.90;51.20;;;;;;20700;6744;305092;-89
2022/08/20 09:17:06;;;;;;;5.80;5.50;;;27.50;49.70;;;;;;20579;6729;338299;-89
2022/08/20 09:19:43;;;;;;;6.03;5.62;;;27.80;49.50;;;;;;20713;6726;304817;-90
2022/08/20 09:22:18;;;;;;;6.97;5.73;;;27.80;49.50;;;;;;20898;6740;119210;-89
2022/08/20 09:24:55;;;;;;;5.67;5.37;;;27.70;49.60;;;;;;20883;6750;119869;-89
2022/08/20 09:27:30;;;;;;;5.80;5.50;;;27.40;49.90;;;;;;20531;6740;310309;-88
2022/08/20 09:30:07;;;;;;;5.17;4.87;;;27.40;49.60;;;;;;20907;6736;130465;-88
2022/08/20 09:32:42;;;;;;;5.10;4.70;;;27.40;50.10;;;;;;20944;6739;70691;-89
2022/08/20 09:35:18;;;;;;;5.05;4.75;;;27.20;50.40;;;;;;20700;6739;334782;-89
2022/08/20 09:37:55;;;;;;;5.70;5.20;;;27.30;49.30;;;;;;20950;6734;117090;-89
2022/08/20 09:40:41;;;;;;;4.60;4.30;;;27.20;50.70;;;;;;21043;6729;117143;-89
2022/08/20 09:43:08;;;;;;;4.27;4.07;;;27.20;50.70;;;;;;20954;6740;116098;-89
2022/08/20 09:45:45;;;;;;;4.17;3.87;;;27.10;50.70;;;;;;20860;6744;117552;-89
2022/08/20 09:48:21;;;;;;;4.90;4.60;;;27.50;50.30;;;;;;20678;6744;306145;-90
2022/08/20 09:50:57;;;;;;;4.57;4.27;;;27.50;50.30;;;;;;20940;6730;118866;-91
2022/08/20 09:53:33;;;;;;;4.50;4.20;;;27.80;49.90;;;;;;20986;6727;117339;-89
2022/08/20 09:56:10;;;;;;;4.53;4.13;;;27.90;50.10;;;;;;20838;6747;118147;-89
2022/08/20 09:58:48;;;;;;;4.13;3.83;;;27.80;50.00;;;;;;20925;6737;119837;-89
2022/08/20 10:01:24;;;;;;;4.27;4.07;;;28.40;48.30;;;;;;20792;6722;304885;-89
2022/08/20 10:04:00;;;;;;;4.20;4.00;;;28.40;48.20;;;;;;20715;6724;275270;-90
2022/08/20 10:06:42;;;;;;;3.77;3.53;;;29.60;47.40;;;;;;20681;6724;277163;-88
2022/08/20 10:09:18;;;;;;;3.47;3.27;;;29.90;47.20;;;;;;20929;6739;117490;-90
2022/08/20 10:11:54;;;;;;;3.20;3.07;;;29.90;47.20;;;;;;20882;6738;117479;-90
2022/08/20 10:14:30;;;;;;;3.60;3.50;;;30.00;47.20;;;;;;20720;6737;305598;-89
2022/08/20 10:17:05;;;;;;;3.60;3.50;;;30.20;44.70;;;;;;20781;6737;117529;-88
2022/08/20 10:19:41;;;;;;;3.63;3.43;;;30.20;44.50;;;;;;20758;6727;275966;-89
2022/08/20 10:22:17;;;;;;;3.70;3.50;;;30.20;43.90;;;;;;20636;6752;278361;-89
2022/08/20 10:24:52;;;;;;;4.87;3.70;;;30.20;42.80;;;;;;20675;6752;276682;-89
2022/08/20 10:27:28;;;;;;;7.47;3.93;;;30.10;44.60;;;;;;20492;6751;277819;-86
2022/08/20 10:30:08;;;;;;;11.97;4.63;;;28.70;47.80;;;;;;20911;6737;117368;-87
2022/08/20 10:32:45;;;;;;;5.60;4.80;;;28.70;47.50;;;;;;20649;6752;276826;-87
2022/08/20 10:35:17;;;;;;;5.80;4.80;;;27.90;49.70;;;;;;20696;6748;276047;-87
2022/08/20 10:37:52;;;;;;;4.80;4.60;;;27.40;50.10;;;;;;20681;6748;334851;-88
2022/08/20 10:40:28;;;;;;;5.37;4.83;;;27.00;51.60;;;;;;20730;6752;278712;-88
2022/08/20 10:43:04;;;;;;;5.10;4.60;;;26.70;53.30;;;;;;20833;6757;120039;-91
2022/08/20 10:45:49;;;;;;;4.57;4.17;;;26.20;54.30;;;;;;20640;6757;308577;-90
2022/08/20 10:48:27;;;;;;;3.03;2.73;;;26.10;55.50;;;;;;20913;6738;118886;-90
2022/08/20 10:50:53;;;;;;;2.27;2.17;;;25.80;55.50;;;;;;20951;6739;73815;-89
2022/08/20 10:53:28;;;;;;;7.17;3.83;;;25.50;55.60;;;;;;20701;6739;277920;-86
2022/08/20 10:56:07;;;;;;;7.80;3.27;;;25.40;56.20;;;;;;20863;6731;117397;-87
2022/08/20 10:58:39;;;;;;;4.53;3.70;;;25.20;56.30;;;;;;20928;6739;117033;-87
2022/08/20 11:01:18;;;;;;;9.83;3.83;;;24.80;57.00;;;;;;20931;6739;117117;-87
2022/08/20 11:03:51;;;;;;;4.77;3.53;;;24.40;58.20;;;;;;20949;6731;117364;-88
2022/08/20 11:06:27;;;;;;;3.90;3.60;;;24.30;58.10;;;;;;20839;6739;117451;-86
2022/08/20 11:09:14;;;;;;;10.30;3.77;;;24.10;58.30;;;;;;20969;6724;116693;-86
2022/08/20 11:11:40;;;;;;;17.03;3.13;;;23.80;58.10;;;;;;20918;6724;117269;-86
2022/08/20 11:14:15;;;;;;;14.27;2.73;;;23.20;58.40;;;;;;20896;6736;118303;-85
2022/08/20 11:16:51;;;;;;;2.77;2.43;;;22.70;59.50;;;;;;20672;6719;293826;-86
2022/08/20 11:19:28;;;;;;;2.90;2.30;;;22.70;62.70;;;;;;20777;6719;333365;-85
2022/08/20 11:22:03;;;;;;;2.57;2.03;;;22.80;62.40;;;;;;20760;6719;275900;-86
2022/08/20 11:24:40;;;;;;;2.03;1.75;;;23.00;61.60;;;;;;20773;6719;305007;-86
2022/08/20 11:27:18;;;;;;;2.65;1.95;;;23.00;61.60;;;;;;20649;6718;306062;-86
2022/08/20 11:29:56;;;;;;;3.33;2.33;;;22.90;62.30;;;;;;20969;6718;146314;-87
2022/08/20 11:32:31;;;;;;;3.80;3.30;;;22.60;62.60;;;;;;20775;6719;334542;-86
2022/08/20 11:35:07;;;;;;;5.60;2.57;;;22.50;65.00;;;;;;20986;6719;120099;-86
2022/08/20 11:37:42;;;;;;;2.70;2.50;;;22.30;65.20;;;;;;20764;6790;116346;-87
2022/08/20 11:40:19;;;;;;;2.97;2.67;;;22.10;67.10;;;;;;20756;6719;304278;-86
2022/08/20 11:42:55;;;;;;;3.15;2.85;;;22.40;67.60;;;;;;20782;6719;275156;-87
2022/08/20 11:45:32;;;;;;;4.03;3.10;;;22.40;67.00;;;;;;20749;6719;275605;-87
2022/08/20 11:48:07;;;;;;;5.03;2.97;;;22.70;66.60;;;;;;20974;6719;117219;-87
2022/08/20 11:50:43;;;;;;;3.87;3.07;;;22.60;66.10;;;;;;20990;6719;117202;-87
2022/08/20 11:53:20;;;;;;;5.13;3.07;;;22.40;66.80;;;;;;20997;6719;116775;-87
2022/08/20 11:55:55;;;;;;;3.50;3.20;;;22.10;67.40;;;;;;20950;6719;117354;-87
2022/08/20 11:58:32;;;;;;;3.50;3.20;;;22.20;68.20;;;;;;20784;6719;304834;-87
2022/08/20 12:01:27;;;;;;;3.50;3.30;;;22.20;68.20;;;;;;20813;6602;332902;31
2022/08/20 12:04:04;;;;;;;3.03;2.70;;;22.60;66.40;;;;;;20990;6621;116976;-87
2022/08/20 12:06:41;;;;;;;5.77;2.70;;;22.60;66.20;;;;;;20840;6734;117845;-87
2022/08/20 12:09:21;;;;;;;2.87;2.60;;;22.40;66.50;;;;;;20970;6725;117606;-87
2022/08/20 12:11:53;;;;;;;2.60;2.40;;;22.20;67.10;;;;;;20944;6725;116774;-87
2022/08/20 12:14:29;;;;;;;3.07;2.50;;;22.20;67.70;;;;;;20968;6725;119414;-87
2022/08/20 12:17:11;;;;;;;2.50;2.30;;;22.10;67.90;;;;;;20933;6725;118395;-87
2022/08/20 12:19:47;;;;;;;2.50;2.40;;;22.10;68.30;;;;;;21003;6740;118618;-87
2022/08/20 12:22:22;;;;;;;2.37;2.27;;;22.10;68.70;;;;;;20796;6734;301530;-87
2022/08/20 12:24:58;;;;;;;3.05;2.80;;;22.40;67.10;;;;;;20852;6602;332795;-87
2022/08/20 12:27:33;;;;;;;2.10;2.00;;;22.90;66.80;;;;;;20920;6719;116610;-87
2022/08/20 12:30:12;;;;;;;2.50;2.40;;;23.00;66.30;;;;;;21025;6719;117145;-89
2022/08/20 12:32:52;;;;;;;2.62;2.53;;;23.30;66.20;;;;;;20774;6719;291703;-90
2022/08/20 12:35:28;;;;;;;2.20;2.10;;;23.30;66.00;;;;;;20975;6719;117244;-88
2022/08/20 12:38:04;;;;;;;2.60;2.40;;;23.40;66.10;;;;;;20970;6718;116794;-89
2022/08/20 12:40:39;;;;;;;2.10;2.00;;;23.30;66.10;;;;;;20928;6733;117314;-90
2022/08/20 12:43:15;;;;;;;3.23;2.63;;;23.20;66.30;;;;;;20757;6719;280639;-87
2022/08/20 12:45:51;;;;;;;2.97;2.78;;;23.90;65.80;;;;;;20738;6719;338534;-88
2022/08/20 12:48:26;;;;;;;2.60;2.50;;;23.90;65.80;;;;;;20770;6719;307266;-87
2022/08/20 12:51:02;;;;;;;2.90;2.70;;;24.20;64.60;;;;;;20772;6719;305080;-87
2022/08/20 12:53:38;;;;;;;2.80;2.60;;;24.50;63.30;;;;;;20989;6719;116708;-87
2022/08/20 12:56:14;;;;;;;2.93;2.73;;;24.20;64.10;;;;;;20911;6719;117122;-87
2022/08/20 12:58:51;;;;;;;2.50;2.40;;;24.20;64.10;;;;;;20993;6719;117366;-87
2022/08/20 13:01:26;;;;;;;2.67;2.50;;;24.00;64.70;;;;;;20988;6719;116885;-87
2022/08/20 13:04:02;;;;;;;2.60;2.40;;;23.90;65.40;;;;;;20959;6719;127084;-87
2022/08/20 13:06:38;;;;;;;3.10;2.90;;;24.20;66.70;;;;;;20695;6719;277512;-87
2022/08/20 13:09:14;;;;;;;3.10;2.80;;;24.10;65.90;;;;;;20775;6719;305349;-86
2022/08/20 13:11:51;;;;;;;3.30;3.10;;;24.60;64.40;;;;;;20784;6719;275395;-86
2022/08/20 13:14:28;;;;;;;3.17;2.90;;;24.90;63.50;;;;;;20772;6719;276179;-87
2022/08/20 13:17:05;;;;;;;3.00;2.80;;;25.20;63.40;;;;;;20567;6734;307955;-86
2022/08/20 13:19:41;;;;;;;3.13;2.93;;;25.40;61.90;;;;;;20736;6775;305562;-86
2022/08/20 13:22:17;;;;;;;3.10;2.90;;;25.60;61.30;;;;;;20755;6719;304949;-87
2022/08/20 13:24:54;;;;;;;2.67;2.47;;;25.70;61.70;;;;;;20911;6729;116937;-87
2022/08/20 13:27:30;;;;;;;2.43;2.33;;;25.30;62.30;;;;;;20740;6740;117483;-87
2022/08/20 13:30:06;;;;;;;2.57;2.47;;;25.30;62.20;;;;;;20921;6734;116999;-86
2022/08/20 13:32:42;;;;;;;2.23;2.00;;;25.10;62.70;;;;;;20991;6719;120155;-87